sensor_id;sensor_type;location;lat;lon;timestamp;temperature;humidity
22108;DHT22;11220;48.812;9.128;2022-11-15T00:01:16;17.50;90.80
22108;DHT22;11220;48.812;9.128;2022-11-15T00:03:43;17.50;91.20
22108;DHT22;11220;48.812;9.128;2022-11-15T00:06:08;17.50;90.80
22108;DHT22;11220;48.812;9.128;2022-11-15T00:08:34;17.60;90.80
22108;DHT22;11220;48.812;9.128;2022-11-15T00:11:01;17.50;90.80
22108;DHT22;11220;48.812;9.128;2022-11-15T00:13:28;17.60;90.80
22108;DHT22;11220;48.812;9.128;2022-11-15T00:15:57;17.60;90.80
22108;DHT22;11220;48.812;9.128;2022-11-15T00:18:22;17.60;90.80
22108;DHT22;11220;48.812;9.128;2022-11-15T00:20:48;17.50;90.80
22108;DHT22;11220;48.812;9.128;2022-11-15T00:23:13;17.50;90.80
22108;DHT22;11220;48.812;9.128;2022-11-15T00:25:39;17.50;90.80
22108;DHT22;11220;48.812;9.128;2022-11-15T00:28:05;17.50;90.80
22108;DHT22;11220;48.812;9.128;2022-11-15T00:30:30;17.50;90.80
22108;DHT22;11220;48.812;9.128;2022-11-15T00:32:56;17.50;90.80
22108;DHT22;11220;48.812;9.128;2022-11-15T00:35:22;17.50;90.80
22108;DHT22;11220;48.812;9.128;2022-11-15T00:37:47;17.50;90.80
22108;DHT22;11220;48.812;9.128;2022-11-15T00:40:13;17.50;90.80
22108;DHT22;11220;48.812;9.128;2022-11-15T00:42:39;17.50;90.80
22108;DHT22;11220;48.812;9.128;2022-11-15T00:45:05;17.50;90.80
22108;DHT22;11220;48.812;9.128;2022-11-15T00:47:31;17.50;90.80
22108;DHT22;11220;48.812;9.128;2022-11-15T00:49:56;17.50;90.80
22108;DHT22;11220;48.812;9.128;2022-11-15T00:52:22;17.50;90.80
22108;DHT22;11220;48.812;9.128;2022-11-15T00:54:48;17.40;90.80
22108;DHT22;11220;48.812;9.128;2022-11-15T00:57:13;17.50;90.80
22108;DHT22;11220;48.812;9.128;2022-11-15T00:59:39;17.50;90.80
22108;DHT22;11220;48.812;9.128;2022-11-15T01:02:04;17.50;90.80
22108;DHT22;11220;48.812;9.128;2022-11-15T01:04:30;17.50;90.80
22108;DHT22;11220;48.812;9.128;2022-11-15T01:06:55;17.50;90.80
22108;DHT22;11220;48.812;9.128;2022-11-15T01:09:21;17.50;90.80
22108;DHT22;11220;48.812;9.128;2022-11-15T01:11:46;17.50;90.80
22108;DHT22;11220;48.812;9.128;2022-11-15T01:14:12;17.50;90.80
22108;DHT22;11220;48.812;9.128;2022-11-15T01:16:37;17.50;90.80
22108;DHT22;11220;48.812;9.128;2022-11-15T01:19:03;17.50;90.80
22108;DHT22;11220;48.812;9.128;2022-11-15T01:21:28;17.50;90.70
22108;DHT22;11220;48.812;9.128;2022-11-15T01:23:55;17.50;90.80
22108;DHT22;11220;48.812;9.128;2022-11-15T01:26:21;17.50;90.70
22108;DHT22;11220;48.812;9.128;2022-11-15T01:28:47;17.50;90.70
22108;DHT22;11220;48.812;9.128;2022-11-15T01:31:15;17.40;90.70
22108;DHT22;11220;48.812;9.128;2022-11-15T01:33:42;17.50;90.90
22108;DHT22;11220;48.812;9.128;2022-11-15T01:36:11;17.50;90.70
22108;DHT22;11220;48.812;9.128;2022-11-15T01:38:37;17.40;90.70
22108;DHT22;11220;48.812;9.128;2022-11-15T01:41:03;17.50;90.70
22108;DHT22;11220;48.812;9.128;2022-11-15T01:43:34;17.50;90.70
22108;DHT22;11220;48.812;9.128;2022-11-15T01:48:44;17.40;90.60
22108;DHT22;11220;48.812;9.128;2022-11-15T01:51:12;17.40;90.60
22108;DHT22;11220;48.812;9.128;2022-11-15T01:53:41;17.40;90.50
22108;DHT22;11220;48.812;9.128;2022-11-15T01:56:09;17.40;90.50
22108;DHT22;11220;48.812;9.128;2022-11-15T01:58:36;17.40;90.50
22108;DHT22;11220;48.812;9.128;2022-11-15T02:01:03;17.90;90.60
22108;DHT22;11220;48.812;9.128;2022-11-15T02:03:36;17.40;90.40
22108;DHT22;11220;48.812;9.128;2022-11-15T02:06:04;17.60;90.50
22108;DHT22;11220;48.812;9.128;2022-11-15T02:08:30;17.40;90.40
22108;DHT22;11220;48.812;9.128;2022-11-15T02:10:55;17.40;90.40
22108;DHT22;11220;48.812;9.128;2022-11-15T02:13:21;17.40;90.40
22108;DHT22;11220;48.812;9.128;2022-11-15T02:16:17;17.40;90.40
22108;DHT22;11220;48.812;9.128;2022-11-15T02:18:52;17.40;90.40
22108;DHT22;11220;48.812;9.128;2022-11-15T02:24:48;17.40;90.40
22108;DHT22;11220;48.812;9.128;2022-11-15T02:32:52;17.30;90.40
22108;DHT22;11220;48.812;9.128;2022-11-15T02:38:31;17.40;90.40
22108;DHT22;11220;48.812;9.128;2022-11-15T02:41:15;17.30;90.40
22108;DHT22;11220;48.812;9.128;2022-11-15T02:46:43;17.30;90.30
22108;DHT22;11220;48.812;9.128;2022-11-15T02:49:32;17.30;90.30
22108;DHT22;11220;48.812;9.128;2022-11-15T02:51:58;17.40;90.30
22108;DHT22;11220;48.812;9.128;2022-11-15T02:54:26;17.30;90.30
22108;DHT22;11220;48.812;9.128;2022-11-15T02:56:55;17.50;90.30
22108;DHT22;11220;48.812;9.128;2022-11-15T02:59:44;17.30;90.20
22108;DHT22;11220;48.812;9.128;2022-11-15T03:05:44;17.30;90.60
22108;DHT22;11220;48.812;9.128;2022-11-15T03:08:31;17.40;90.30
22108;DHT22;11220;48.812;9.128;2022-11-15T03:11:16;17.30;90.20
22108;DHT22;11220;48.812;9.128;2022-11-15T03:22:03;17.30;90.20
22108;DHT22;11220;48.812;9.128;2022-11-15T03:24:30;17.30;90.20
22108;DHT22;11220;48.812;9.128;2022-11-15T03:26:59;17.30;90.20
22108;DHT22;11220;48.812;9.128;2022-11-15T03:29:31;17.30;90.10
22108;DHT22;11220;48.812;9.128;2022-11-15T03:32:01;17.30;90.10
22108;DHT22;11220;48.812;9.128;2022-11-15T03:34:43;17.30;90.10
22108;DHT22;11220;48.812;9.128;2022-11-15T03:37:10;17.30;90.10
22108;DHT22;11220;48.812;9.128;2022-11-15T03:39:37;17.30;90.10
22108;DHT22;11220;48.812;9.128;2022-11-15T03:42:17;17.30;90.10
22108;DHT22;11220;48.812;9.128;2022-11-15T03:44:59;17.30;90.10
22108;DHT22;11220;48.812;9.128;2022-11-15T03:47:38;17.30;90.10
22108;DHT22;11220;48.812;9.128;2022-11-15T03:50:11;17.30;90.10
22108;DHT22;11220;48.812;9.128;2022-11-15T03:52:37;17.20;90.10
22108;DHT22;11220;48.812;9.128;2022-11-15T03:55:05;17.20;90.10
22108;DHT22;11220;48.812;9.128;2022-11-15T03:57:31;17.30;90.10
22108;DHT22;11220;48.812;9.128;2022-11-15T03:59:57;17.20;90.10
22108;DHT22;11220;48.812;9.128;2022-11-15T04:02:22;17.20;90.10
22108;DHT22;11220;48.812;9.128;2022-11-15T04:04:48;17.20;90.10
22108;DHT22;11220;48.812;9.128;2022-11-15T04:07:13;17.20;90.10
22108;DHT22;11220;48.812;9.128;2022-11-15T04:09:39;17.20;90.10
22108;DHT22;11220;48.812;9.128;2022-11-15T04:12:24;17.20;90.10
22108;DHT22;11220;48.812;9.128;2022-11-15T04:15:04;17.20;90.10
22108;DHT22;11220;48.812;9.128;2022-11-15T04:20:18;17.20;90.10
22108;DHT22;11220;48.812;9.128;2022-11-15T04:23:22;17.20;90.10
22108;DHT22;11220;48.812;9.128;2022-11-15T04:26:20;17.20;90.10
22108;DHT22;11220;48.812;9.128;2022-11-15T04:28:47;17.20;90.10
22108;DHT22;11220;48.812;9.128;2022-11-15T04:31:31;17.20;90.10
22108;DHT22;11220;48.812;9.128;2022-11-15T04:33:57;17.20;90.10
22108;DHT22;11220;48.812;9.128;2022-11-15T04:36:22;17.20;90.10
22108;DHT22;11220;48.812;9.128;2022-11-15T04:39:07;17.20;90.10
22108;DHT22;11220;48.812;9.128;2022-11-15T04:41:33;17.20;90.10
22108;DHT22;11220;48.812;9.128;2022-11-15T04:43:58;17.20;90.10
22108;DHT22;11220;48.812;9.128;2022-11-15T04:46:24;17.20;90.20
22108;DHT22;11220;48.812;9.128;2022-11-15T04:48:51;17.20;90.20
22108;DHT22;11220;48.812;9.128;2022-11-15T04:51:17;17.20;90.10
22108;DHT22;11220;48.812;9.128;2022-11-15T04:53:42;17.20;90.10
22108;DHT22;11220;48.812;9.128;2022-11-15T04:56:08;17.20;90.20
22108;DHT22;11220;48.812;9.128;2022-11-15T04:58:34;17.20;90.20
22108;DHT22;11220;48.812;9.128;2022-11-15T05:01:10;17.20;90.20
22108;DHT22;11220;48.812;9.128;2022-11-15T05:03:36;17.20;90.10
22108;DHT22;11220;48.812;9.128;2022-11-15T05:06:19;17.20;90.20
22108;DHT22;11220;48.812;9.128;2022-11-15T05:08:45;17.20;90.20
22108;DHT22;11220;48.812;9.128;2022-11-15T05:11:10;17.20;90.20
22108;DHT22;11220;48.812;9.128;2022-11-15T05:13:36;17.20;90.20
22108;DHT22;11220;48.812;9.128;2022-11-15T05:16:01;17.20;90.10
22108;DHT22;11220;48.812;9.128;2022-11-15T05:18:27;17.20;90.10
22108;DHT22;11220;48.812;9.128;2022-11-15T05:20:52;17.20;90.20
22108;DHT22;11220;48.812;9.128;2022-11-15T05:23:18;17.20;90.20
22108;DHT22;11220;48.812;9.128;2022-11-15T05:25:43;17.20;90.20
22108;DHT22;11220;48.812;9.128;2022-11-15T05:28:09;17.20;90.20
22108;DHT22;11220;48.812;9.128;2022-11-15T05:30:34;17.20;90.10
22108;DHT22;11220;48.812;9.128;2022-11-15T05:33:00;17.20;90.10
22108;DHT22;11220;48.812;9.128;2022-11-15T05:35:34;17.20;90.20
22108;DHT22;11220;48.812;9.128;2022-11-15T05:38:03;17.20;90.10
22108;DHT22;11220;48.812;9.128;2022-11-15T05:40:30;17.20;90.10
22108;DHT22;11220;48.812;9.128;2022-11-15T05:42:56;17.20;90.10
22108;DHT22;11220;48.812;9.128;2022-11-15T05:45:22;17.20;90.10
22108;DHT22;11220;48.812;9.128;2022-11-15T05:47:49;17.10;90.10
22108;DHT22;11220;48.812;9.128;2022-11-15T05:50:16;17.20;90.10
22108;DHT22;11220;48.812;9.128;2022-11-15T05:52:43;17.20;90.10
22108;DHT22;11220;48.812;9.128;2022-11-15T05:55:10;17.20;90.10
22108;DHT22;11220;48.812;9.128;2022-11-15T05:57:36;17.20;90.10
22108;DHT22;11220;48.812;9.128;2022-11-15T06:00:03;17.20;90.00
22108;DHT22;11220;48.812;9.128;2022-11-15T06:02:29;17.20;90.10
22108;DHT22;11220;48.812;9.128;2022-11-15T06:04:55;17.20;90.10
22108;DHT22;11220;48.812;9.128;2022-11-15T06:07:20;17.20;90.10
22108;DHT22;11220;48.812;9.128;2022-11-15T06:09:46;17.20;90.10
22108;DHT22;11220;48.812;9.128;2022-11-15T06:12:11;17.20;90.20
22108;DHT22;11220;48.812;9.128;2022-11-15T06:14:37;17.20;90.20
22108;DHT22;11220;48.812;9.128;2022-11-15T06:17:02;17.20;90.30
22108;DHT22;11220;48.812;9.128;2022-11-15T06:19:28;17.20;90.30
22108;DHT22;11220;48.812;9.128;2022-11-15T06:22:00;17.20;90.40
22108;DHT22;11220;48.812;9.128;2022-11-15T06:24:26;17.20;90.50
22108;DHT22;11220;48.812;9.128;2022-11-15T06:26:52;17.30;90.50
22108;DHT22;11220;48.812;9.128;2022-11-15T06:29:17;17.30;90.60
22108;DHT22;11220;48.812;9.128;2022-11-15T06:31:43;17.30;90.70
22108;DHT22;11220;48.812;9.128;2022-11-15T06:34:09;17.30;90.70
22108;DHT22;11220;48.812;9.128;2022-11-15T06:36:35;18.00;91.00
22108;DHT22;11220;48.812;9.128;2022-11-15T06:39:04;17.30;90.80
22108;DHT22;11220;48.812;9.128;2022-11-15T06:41:30;17.30;90.80
22108;DHT22;11220;48.812;9.128;2022-11-15T06:43:57;17.40;90.90
22108;DHT22;11220;48.812;9.128;2022-11-15T06:46:22;17.40;90.90
22108;DHT22;11220;48.812;9.128;2022-11-15T06:48:50;17.40;90.90
22108;DHT22;11220;48.812;9.128;2022-11-15T06:51:16;17.40;91.00
22108;DHT22;11220;48.812;9.128;2022-11-15T06:53:42;17.50;91.00
22108;DHT22;11220;48.812;9.128;2022-11-15T06:56:08;17.40;91.00
22108;DHT22;11220;48.812;9.128;2022-11-15T06:58:34;17.40;91.00
22108;DHT22;11220;48.812;9.128;2022-11-15T07:01:09;17.40;91.10
22108;DHT22;11220;48.812;9.128;2022-11-15T07:03:36;17.40;91.00
22108;DHT22;11220;48.812;9.128;2022-11-15T07:06:02;17.40;91.00
22108;DHT22;11220;48.812;9.128;2022-11-15T07:08:28;17.50;91.00
22108;DHT22;11220;48.812;9.128;2022-11-15T07:10:55;17.50;91.10
22108;DHT22;11220;48.812;9.128;2022-11-15T07:13:26;17.50;91.10
22108;DHT22;11220;48.812;9.128;2022-11-15T07:15:52;17.50;91.50
22108;DHT22;11220;48.812;9.128;2022-11-15T07:18:18;17.50;91.10
22108;DHT22;11220;48.812;9.128;2022-11-15T07:20:43;17.50;91.10
22108;DHT22;11220;48.812;9.128;2022-11-15T07:23:09;17.50;91.10
22108;DHT22;11220;48.812;9.128;2022-11-15T07:25:35;18.30;91.30
22108;DHT22;11220;48.812;9.128;2022-11-15T07:28:00;17.50;91.10
22108;DHT22;11220;48.812;9.128;2022-11-15T07:30:27;17.50;91.10
22108;DHT22;11220;48.812;9.128;2022-11-15T07:32:56;17.50;91.10
22108;DHT22;11220;48.812;9.128;2022-11-15T07:35:22;17.50;91.10
22108;DHT22;11220;48.812;9.128;2022-11-15T07:37:59;17.60;91.10
22108;DHT22;11220;48.812;9.128;2022-11-15T07:40:27;17.50;91.10
22108;DHT22;11220;48.812;9.128;2022-11-15T07:42:58;17.50;91.10
22108;DHT22;11220;48.812;9.128;2022-11-15T07:45:24;17.50;91.10
22108;DHT22;11220;48.812;9.128;2022-11-15T07:47:52;17.60;91.10
22108;DHT22;11220;48.812;9.128;2022-11-15T07:50:18;17.50;91.10
22108;DHT22;11220;48.812;9.128;2022-11-15T07:52:44;17.50;91.10
22108;DHT22;11220;48.812;9.128;2022-11-15T07:55:10;17.60;91.10
22108;DHT22;11220;48.812;9.128;2022-11-15T07:57:35;17.60;91.10
22108;DHT22;11220;48.812;9.128;2022-11-15T08:00:02;17.60;91.10
22108;DHT22;11220;48.812;9.128;2022-11-15T08:02:28;17.60;91.10
22108;DHT22;11220;48.812;9.128;2022-11-15T08:04:54;17.60;91.10
22108;DHT22;11220;48.812;9.128;2022-11-15T08:07:19;17.60;91.10
22108;DHT22;11220;48.812;9.128;2022-11-15T08:09:45;17.60;91.10
22108;DHT22;11220;48.812;9.128;2022-11-15T08:12:10;17.60;91.10
22108;DHT22;11220;48.812;9.128;2022-11-15T08:14:36;17.60;91.10
22108;DHT22;11220;48.812;9.128;2022-11-15T08:17:01;17.60;91.10
22108;DHT22;11220;48.812;9.128;2022-11-15T08:19:27;17.60;91.10
22108;DHT22;11220;48.812;9.128;2022-11-15T08:21:52;17.60;91.10
22108;DHT22;11220;48.812;9.128;2022-11-15T08:24:18;17.60;91.20
22108;DHT22;11220;48.812;9.128;2022-11-15T08:26:43;17.60;91.20
22108;DHT22;11220;48.812;9.128;2022-11-15T08:29:09;17.60;91.20
22108;DHT22;11220;48.812;9.128;2022-11-15T08:31:36;17.60;91.20
22108;DHT22;11220;48.812;9.128;2022-11-15T08:34:02;17.60;91.20
22108;DHT22;11220;48.812;9.128;2022-11-15T08:36:28;17.60;91.20
22108;DHT22;11220;48.812;9.128;2022-11-15T08:38:53;17.70;91.30
22108;DHT22;11220;48.812;9.128;2022-11-15T08:41:28;17.70;91.30
22108;DHT22;11220;48.812;9.128;2022-11-15T08:43:55;17.70;91.30
22108;DHT22;11220;48.812;9.128;2022-11-15T08:46:20;17.70;91.30
22108;DHT22;11220;48.812;9.128;2022-11-15T08:48:46;17.80;91.40
22108;DHT22;11220;48.812;9.128;2022-11-15T08:51:11;17.70;91.30
22108;DHT22;11220;48.812;9.128;2022-11-15T08:53:37;17.70;91.40
22108;DHT22;11220;48.812;9.128;2022-11-15T08:56:07;17.70;91.40
22108;DHT22;11220;48.812;9.128;2022-11-15T08:58:33;17.70;91.40
22108;DHT22;11220;48.812;9.128;2022-11-15T09:00:58;17.70;91.50
22108;DHT22;11220;48.812;9.128;2022-11-15T09:03:24;17.80;91.50
22108;DHT22;11220;48.812;9.128;2022-11-15T09:05:55;17.80;91.50
22108;DHT22;11220;48.812;9.128;2022-11-15T09:08:20;17.80;91.50
22108;DHT22;11220;48.812;9.128;2022-11-15T09:10:46;17.80;91.50
22108;DHT22;11220;48.812;9.128;2022-11-15T09:13:11;17.80;91.50
22108;DHT22;11220;48.812;9.128;2022-11-15T09:15:37;17.80;91.50
22108;DHT22;11220;48.812;9.128;2022-11-15T09:18:03;17.80;91.60
22108;DHT22;11220;48.812;9.128;2022-11-15T09:20:28;17.80;91.60
22108;DHT22;11220;48.812;9.128;2022-11-15T09:22:54;17.80;91.60
22108;DHT22;11220;48.812;9.128;2022-11-15T09:25:19;17.80;91.70
22108;DHT22;11220;48.812;9.128;2022-11-15T09:27:45;17.80;91.70
22108;DHT22;11220;48.812;9.128;2022-11-15T09:30:11;17.80;91.70
22108;DHT22;11220;48.812;9.128;2022-11-15T09:32:36;17.80;91.70
22108;DHT22;11220;48.812;9.128;2022-11-15T09:35:02;17.80;91.70
22108;DHT22;11220;48.812;9.128;2022-11-15T09:37:28;17.80;91.80
22108;DHT22;11220;48.812;9.128;2022-11-15T09:39:53;17.90;91.70
22108;DHT22;11220;48.812;9.128;2022-11-15T09:42:33;17.90;91.70
22108;DHT22;11220;48.812;9.128;2022-11-15T09:45:15;17.80;91.70
22108;DHT22;11220;48.812;9.128;2022-11-15T09:47:47;17.90;91.80
22108;DHT22;11220;48.812;9.128;2022-11-15T09:50:37;17.90;91.80
22108;DHT22;11220;48.812;9.128;2022-11-15T09:53:04;17.90;91.80
22108;DHT22;11220;48.812;9.128;2022-11-15T09:55:38;17.90;91.80
22108;DHT22;11220;48.812;9.128;2022-11-15T09:58:16;17.90;91.80
22108;DHT22;11220;48.812;9.128;2022-11-15T10:00:47;17.90;91.80
22108;DHT22;11220;48.812;9.128;2022-11-15T10:05:42;17.90;91.90
22108;DHT22;11220;48.812;9.128;2022-11-15T10:11:01;18.00;92.00
22108;DHT22;11220;48.812;9.128;2022-11-15T10:13:36;18.00;92.00
22108;DHT22;11220;48.812;9.128;2022-11-15T10:21:56;18.00;92.00
22108;DHT22;11220;48.812;9.128;2022-11-15T10:24:26;18.00;92.00
22108;DHT22;11220;48.812;9.128;2022-11-15T10:26:54;18.00;92.10
22108;DHT22;11220;48.812;9.128;2022-11-15T10:29:21;18.10;92.10
22108;DHT22;11220;48.812;9.128;2022-11-15T10:31:47;18.10;92.10
22108;DHT22;11220;48.812;9.128;2022-11-15T10:34:15;18.10;92.10
22108;DHT22;11220;48.812;9.128;2022-11-15T10:36:57;18.10;92.10
22108;DHT22;11220;48.812;9.128;2022-11-15T10:39:24;18.10;92.10
22108;DHT22;11220;48.812;9.128;2022-11-15T10:41:50;18.10;92.10
22108;DHT22;11220;48.812;9.128;2022-11-15T10:44:31;18.10;92.10
22108;DHT22;11220;48.812;9.128;2022-11-15T10:49:28;18.10;92.10
22108;DHT22;11220;48.812;9.128;2022-11-15T10:51:56;18.10;92.10
22108;DHT22;11220;48.812;9.128;2022-11-15T10:57:17;18.00;92.10
22108;DHT22;11220;48.812;9.128;2022-11-15T10:59:48;18.10;92.10
22108;DHT22;11220;48.812;9.128;2022-11-15T11:02:30;18.10;92.10
22108;DHT22;11220;48.812;9.128;2022-11-15T11:04:56;18.10;92.10
22108;DHT22;11220;48.812;9.128;2022-11-15T11:07:30;18.10;92.10
22108;DHT22;11220;48.812;9.128;2022-11-15T11:10:03;18.10;92.10
22108;DHT22;11220;48.812;9.128;2022-11-15T11:12:30;18.10;92.20
22108;DHT22;11220;48.812;9.128;2022-11-15T11:15:00;18.10;92.00
22108;DHT22;11220;48.812;9.128;2022-11-15T11:17:48;18.10;92.10
22108;DHT22;11220;48.812;9.128;2022-11-15T11:23:06;18.10;92.00
22108;DHT22;11220;48.812;9.128;2022-11-15T11:36:57;18.10;92.10
22108;DHT22;11220;48.812;9.128;2022-11-15T11:47:40;18.20;92.10
22108;DHT22;11220;48.812;9.128;2022-11-15T11:50:24;18.30;92.10
22108;DHT22;11220;48.812;9.128;2022-11-15T11:56:01;18.30;92.00
22108;DHT22;11220;48.812;9.128;2022-11-15T11:58:34;18.30;92.00
22108;DHT22;11220;48.812;9.128;2022-11-15T12:01:29;18.30;91.90
22108;DHT22;11220;48.812;9.128;2022-11-15T12:04:13;18.30;91.90
22108;DHT22;11220;48.812;9.128;2022-11-15T12:06:53;18.40;91.90
22108;DHT22;11220;48.812;9.128;2022-11-15T12:09:21;18.40;91.90
22108;DHT22;11220;48.812;9.128;2022-11-15T12:17:04;18.40;91.80
22108;DHT22;11220;48.812;9.128;2022-11-15T12:19:30;18.40;91.80
22108;DHT22;11220;48.812;9.128;2022-11-15T12:22:12;18.40;91.80
22108;DHT22;11220;48.812;9.128;2022-11-15T12:25:00;18.40;91.80
22108;DHT22;11220;48.812;9.128;2022-11-15T12:27:35;18.40;91.80
22108;DHT22;11220;48.812;9.128;2022-11-15T12:30:17;18.40;91.80
22108;DHT22;11220;48.812;9.128;2022-11-15T12:32:52;18.40;91.80
22108;DHT22;11220;48.812;9.128;2022-11-15T12:37:54;18.40;91.70
22108;DHT22;11220;48.812;9.128;2022-11-15T12:40:33;18.50;91.70
22108;DHT22;11220;48.812;9.128;2022-11-15T12:43:01;18.40;91.70
22108;DHT22;11220;48.812;9.128;2022-11-15T12:45:35;18.40;91.70
22108;DHT22;11220;48.812;9.128;2022-11-15T12:58:53;18.40;91.80
22108;DHT22;11220;48.812;9.128;2022-11-15T13:06:52;18.40;91.90
22108;DHT22;11220;48.812;9.128;2022-11-15T13:17:20;18.40;91.90
22108;DHT22;11220;48.812;9.128;2022-11-15T13:22:41;18.40;91.90
22108;DHT22;11220;48.812;9.128;2022-11-15T13:25:40;18.40;91.90
22108;DHT22;11220;48.812;9.128;2022-11-15T13:33:35;18.40;92.00
22108;DHT22;11220;48.812;9.128;2022-11-15T13:36:18;18.40;91.90
22108;DHT22;11220;48.812;9.128;2022-11-15T13:38:45;18.40;91.90
22108;DHT22;11220;48.812;9.128;2022-11-15T13:41:22;18.40;91.90
22108;DHT22;11220;48.812;9.128;2022-11-15T13:43:49;18.40;91.90
22108;DHT22;11220;48.812;9.128;2022-11-15T13:46:22;18.40;91.90
22108;DHT22;11220;48.812;9.128;2022-11-15T13:48:57;18.40;91.90
22108;DHT22;11220;48.812;9.128;2022-11-15T13:56:32;18.40;92.10
22108;DHT22;11220;48.812;9.128;2022-11-15T13:59:00;18.40;92.10
22108;DHT22;11220;48.812;9.128;2022-11-15T14:01:28;18.40;92.10
22108;DHT22;11220;48.812;9.128;2022-11-15T14:03:58;18.40;92.10
22108;DHT22;11220;48.812;9.128;2022-11-15T14:06:26;18.50;92.20
22108;DHT22;11220;48.812;9.128;2022-11-15T14:09:02;18.40;92.10
22108;DHT22;11220;48.812;9.128;2022-11-15T14:11:28;18.40;92.10
22108;DHT22;11220;48.812;9.128;2022-11-15T14:16:44;18.40;92.20
22108;DHT22;11220;48.812;9.128;2022-11-15T14:19:13;18.50;92.20
22108;DHT22;11220;48.812;9.128;2022-11-15T14:22:16;18.40;92.20
22108;DHT22;11220;48.812;9.128;2022-11-15T14:24:45;18.40;92.20
22108;DHT22;11220;48.812;9.128;2022-11-15T14:27:28;18.40;92.20
22108;DHT22;11220;48.812;9.128;2022-11-15T14:29:54;18.40;92.20
22108;DHT22;11220;48.812;9.128;2022-11-15T14:32:22;18.40;92.20
22108;DHT22;11220;48.812;9.128;2022-11-15T14:34:53;18.40;92.30
22108;DHT22;11220;48.812;9.128;2022-11-15T14:39:45;18.40;92.40
22108;DHT22;11220;48.812;9.128;2022-11-15T14:42:10;18.40;92.30
22108;DHT22;11220;48.812;9.128;2022-11-15T14:44:36;18.40;92.30
22108;DHT22;11220;48.812;9.128;2022-11-15T14:47:01;18.40;92.40
22108;DHT22;11220;48.812;9.128;2022-11-15T14:49:26;18.40;92.40
22108;DHT22;11220;48.812;9.128;2022-11-15T14:51:52;18.40;92.40
22108;DHT22;11220;48.812;9.128;2022-11-15T14:54:17;18.40;92.30
22108;DHT22;11220;48.812;9.128;2022-11-15T14:56:43;18.30;91.30
22108;DHT22;11220;48.812;9.128;2022-11-15T14:59:08;18.20;90.60
22108;DHT22;11220;48.812;9.128;2022-11-15T15:01:34;17.90;90.10
22108;DHT22;11220;48.812;9.128;2022-11-15T15:03:59;17.70;89.90
22108;DHT22;11220;48.812;9.128;2022-11-15T15:06:26;17.50;89.50
22108;DHT22;11220;48.812;9.128;2022-11-15T15:08:51;17.30;89.60
22108;DHT22;11220;48.812;9.128;2022-11-15T15:11:27;17.10;89.60
22108;DHT22;11220;48.812;9.128;2022-11-15T15:13:54;17.00;89.90
22108;DHT22;11220;48.812;9.128;2022-11-15T15:16:25;16.90;90.20
22108;DHT22;11220;48.812;9.128;2022-11-15T15:18:50;16.90;90.50
22108;DHT22;11220;48.812;9.128;2022-11-15T15:21:24;16.90;90.80
22108;DHT22;11220;48.812;9.128;2022-11-15T15:23:51;17.00;91.00
22108;DHT22;11220;48.812;9.128;2022-11-15T15:26:19;17.10;91.20
22108;DHT22;11220;48.812;9.128;2022-11-15T15:28:45;17.20;91.20
22108;DHT22;11220;48.812;9.128;2022-11-15T15:31:10;17.30;91.30
22108;DHT22;11220;48.812;9.128;2022-11-15T15:33:36;17.30;91.30
22108;DHT22;11220;48.812;9.128;2022-11-15T15:36:03;17.40;91.30
22108;DHT22;11220;48.812;9.128;2022-11-15T15:38:28;17.40;91.30
22108;DHT22;11220;48.812;9.128;2022-11-15T15:40:54;17.50;91.40
22108;DHT22;11220;48.812;9.128;2022-11-15T15:43:20;17.50;91.40
22108;DHT22;11220;48.812;9.128;2022-11-15T15:45:46;17.50;91.40
22108;DHT22;11220;48.812;9.128;2022-11-15T15:48:14;17.60;91.40
22108;DHT22;11220;48.812;9.128;2022-11-15T15:50:41;17.60;91.40
22108;DHT22;11220;48.812;9.128;2022-11-15T15:53:09;17.60;91.40
22108;DHT22;11220;48.812;9.128;2022-11-15T15:55:36;17.60;91.40
22108;DHT22;11220;48.812;9.128;2022-11-15T15:58:02;17.60;91.50
22108;DHT22;11220;48.812;9.128;2022-11-15T16:00:28;17.70;91.50
22108;DHT22;11220;48.812;9.128;2022-11-15T16:02:54;17.70;91.50
22108;DHT22;11220;48.812;9.128;2022-11-15T16:05:20;17.70;91.50
22108;DHT22;11220;48.812;9.128;2022-11-15T16:07:46;17.70;91.60
22108;DHT22;11220;48.812;9.128;2022-11-15T16:10:24;17.70;91.60
22108;DHT22;11220;48.812;9.128;2022-11-15T16:12:50;17.70;91.60
22108;DHT22;11220;48.812;9.128;2022-11-15T16:15:16;17.80;91.60
22108;DHT22;11220;48.812;9.128;2022-11-15T16:17:49;17.70;91.60
22108;DHT22;11220;48.812;9.128;2022-11-15T16:20:36;17.80;91.70
22108;DHT22;11220;48.812;9.128;2022-11-15T16:23:04;17.70;91.70
22108;DHT22;11220;48.812;9.128;2022-11-15T16:28:27;17.80;91.70
22108;DHT22;11220;48.812;9.128;2022-11-15T16:33:26;17.80;91.80
22108;DHT22;11220;48.812;9.128;2022-11-15T16:35:52;17.70;91.80
22108;DHT22;11220;48.812;9.128;2022-11-15T16:38:17;17.80;91.80
22108;DHT22;11220;48.812;9.128;2022-11-15T16:40:43;17.80;91.80
22108;DHT22;11220;48.812;9.128;2022-11-15T16:43:09;17.80;91.90
22108;DHT22;11220;48.812;9.128;2022-11-15T16:45:35;17.80;91.90
22108;DHT22;11220;48.812;9.128;2022-11-15T16:48:01;17.80;91.90
22108;DHT22;11220;48.812;9.128;2022-11-15T16:50:29;17.70;91.90
22108;DHT22;11220;48.812;9.128;2022-11-15T16:52:56;17.80;91.90
22108;DHT22;11220;48.812;9.128;2022-11-15T16:55:26;17.80;91.90
22108;DHT22;11220;48.812;9.128;2022-11-15T16:57:53;17.80;91.90
22108;DHT22;11220;48.812;9.128;2022-11-15T17:00:19;17.80;91.90
22108;DHT22;11220;48.812;9.128;2022-11-15T17:02:46;17.80;92.00
22108;DHT22;11220;48.812;9.128;2022-11-15T17:05:12;17.70;92.00
22108;DHT22;11220;48.812;9.128;2022-11-15T17:07:38;17.80;92.00
22108;DHT22;11220;48.812;9.128;2022-11-15T17:10:04;17.80;92.10
22108;DHT22;11220;48.812;9.128;2022-11-15T17:12:32;17.80;92.10
22108;DHT22;11220;48.812;9.128;2022-11-15T17:14:58;17.80;92.10
22108;DHT22;11220;48.812;9.128;2022-11-15T17:17:23;17.80;92.10
22108;DHT22;11220;48.812;9.128;2022-11-15T17:19:51;17.80;92.20
22108;DHT22;11220;48.812;9.128;2022-11-15T17:22:16;17.80;92.20
22108;DHT22;11220;48.812;9.128;2022-11-15T17:24:42;17.80;92.20
22108;DHT22;11220;48.812;9.128;2022-11-15T17:27:07;17.80;92.30
22108;DHT22;11220;48.812;9.128;2022-11-15T17:29:33;17.80;92.20
22108;DHT22;11220;48.812;9.128;2022-11-15T17:31:58;17.70;92.20
22108;DHT22;11220;48.812;9.128;2022-11-15T17:34:24;17.80;92.30
22108;DHT22;11220;48.812;9.128;2022-11-15T17:36:49;17.80;92.30
22108;DHT22;11220;48.812;9.128;2022-11-15T17:39:15;17.80;92.30
22108;DHT22;11220;48.812;9.128;2022-11-15T17:41:40;17.80;92.40
22108;DHT22;11220;48.812;9.128;2022-11-15T17:44:06;17.80;92.40
22108;DHT22;11220;48.812;9.128;2022-11-15T17:46:31;17.80;92.40
22108;DHT22;11220;48.812;9.128;2022-11-15T17:48:58;17.80;92.40
22108;DHT22;11220;48.812;9.128;2022-11-15T17:51:24;17.80;92.90